Time;durP1;ratioP1;P1;durP2;ratioP2;P2;SDS_P1;SDS_P2;PMS_P1;PMS_P2;Temp;Humidity;BMP_temperature;BMP_pressure;BME280_temperature;BME280_humidity;BME280_pressure;Samples;Min_cycle;Max_cycle;Signal;HPM_P1;HPM_P2
2023/12/02 00:00:31;;;;;;;12.55;8.38;;;1.90;99.90;;;;;;5054014;28;20075;-72
2023/12/02 00:02:57;;;;;;;12.60;8.30;;;1.90;99.90;;;;;;5053984;28;20117;-65
2023/12/02 00:05:23;;;;;;;11.57;8.07;;;1.90;99.90;;;;;;5053612;28;20064;-66
2023/12/02 00:07:48;;;;;;;12.30;8.02;;;1.90;99.90;;;;;;5053118;28;20024;-67
2023/12/02 00:10:14;;;;;;;13.30;8.15;;;1.80;99.90;;;;;;5053461;28;20029;-66
2023/12/02 00:12:40;;;;;;;10.65;7.78;;;1.90;99.90;;;;;;5053261;28;20049;-65
2023/12/02 00:15:07;;;;;;;12.23;7.72;;;1.90;99.90;;;;;;5053585;28;20025;-66
2023/12/02 00:17:33;;;;;;;11.25;7.43;;;1.80;99.90;;;;;;5051908;28;20431;-66
2023/12/02 00:19:58;;;;;;;12.85;8.90;;;1.90;99.90;;;;;;5053641;28;20092;-66
2023/12/02 00:22:24;;;;;;;12.38;8.05;;;1.80;99.90;;;;;;5053453;28;20025;-67
2023/12/02 00:24:50;;;;;;;12.07;8.13;;;1.90;99.90;;;;;;5053128;28;20100;-66
2023/12/02 00:27:17;;;;;;;12.68;8.40;;;1.90;99.90;;;;;;5053478;28;20418;-66
2023/12/02 00:29:43;;;;;;;11.20;8.80;;;1.90;99.90;;;;;;5053055;28;20052;-66
2023/12/02 00:32:08;;;;;;;15.10;9.57;;;1.90;99.90;;;;;;5053377;28;20021;-66
2023/12/02 00:34:34;;;;;;;13.15;9.40;;;1.90;99.90;;;;;;5053005;28;20436;-68
2023/12/02 00:36:59;;;;;;;16.55;10.75;;;1.90;99.90;;;;;;5053064;28;20040;-66
2023/12/02 00:39:25;;;;;;;17.90;11.48;;;1.90;99.90;;;;;;5052914;28;20029;-67
2023/12/02 00:41:51;;;;;;;17.25;11.82;;;1.90;99.90;;;;;;5052832;28;20040;-67
2023/12/02 00:44:16;;;;;;;21.90;12.75;;;1.90;99.90;;;;;;5053099;28;20374;-66
2023/12/02 00:46:42;;;;;;;18.90;12.98;;;1.90;99.90;;;;;;5052645;28;20028;-67
2023/12/02 00:49:07;;;;;;;21.13;13.50;;;1.90;99.90;;;;;;5053394;28;20100;-66
2023/12/02 00:51:33;;;;;;;20.20;13.38;;;1.90;99.90;;;;;;5052117;28;20090;-72
2023/12/02 00:53:59;;;;;;;18.98;12.82;;;1.90;99.90;;;;;;5052713;28;20021;-66
2023/12/02 00:56:24;;;;;;;21.60;14.00;;;1.90;99.90;;;;;;5052850;28;20029;-67
2023/12/02 00:58:50;;;;;;;20.50;14.15;;;2.00;99.90;;;;;;5052292;28;20021;-67
2023/12/02 01:01:15;;;;;;;20.90;13.75;;;2.00;99.90;;;;;;5051953;28;20021;-66
2023/12/02 01:03:41;;;;;;;22.65;15.25;;;2.00;99.90;;;;;;5052416;28;20017;-67
2023/12/02 01:06:07;;;;;;;22.77;12.85;;;2.00;99.90;;;;;;5052757;28;20454;-68
2023/12/02 01:08:33;;;;;;;20.45;13.88;;;1.90;99.90;;;;;;5052694;28;20025;-67
2023/12/02 01:10:58;;;;;;;20.48;13.63;;;1.90;99.90;;;;;;5052163;28;20122;-66
2023/12/02 01:13:24;;;;;;;22.52;14.80;;;1.90;99.90;;;;;;5052624;28;20024;-67
2023/12/02 01:15:50;;;;;;;22.10;14.70;;;1.90;99.90;;;;;;5052329;28;20034;-67
2023/12/02 01:18:15;;;;;;;21.80;14.77;;;1.90;99.90;;;;;;5052334;28;20497;-66
2023/12/02 01:20:41;;;;;;;25.35;15.13;;;1.90;99.90;;;;;;5051993;28;20040;-67
2023/12/02 01:23:06;;;;;;;23.38;14.77;;;1.90;99.90;;;;;;5052035;28;20580;-67
2023/12/02 01:25:32;;;;;;;21.63;14.43;;;1.90;99.90;;;;;;5052349;28;20060;-66
2023/12/02 01:27:57;;;;;;;25.23;15.32;;;1.90;99.90;;;;;;5052158;28;20047;-67
2023/12/02 01:30:24;;;;;;;24.10;15.95;;;1.90;99.90;;;;;;5052256;28;20047;-67
2023/12/02 01:32:50;;;;;;;22.48;15.02;;;1.90;99.90;;;;;;5052134;28;20021;-67
2023/12/02 01:35:15;;;;;;;23.75;15.25;;;1.90;99.90;;;;;;5052103;28;20466;-67
2023/12/02 01:37:41;;;;;;;28.90;17.88;;;1.90;99.90;;;;;;5051861;28;20037;-67
2023/12/02 01:40:07;;;;;;;26.40;17.15;;;1.90;99.90;;;;;;5052409;28;20435;-67
2023/12/02 01:42:33;;;;;;;27.10;16.90;;;1.90;99.90;;;;;;5052346;28;20025;-67
2023/12/02 01:44:59;;;;;;;26.33;17.00;;;1.90;99.90;;;;;;5051712;28;20116;-66
2023/12/02 01:47:24;;;;;;;27.48;17.48;;;1.90;99.90;;;;;;5052355;28;20029;-66
2023/12/02 01:49:51;;;;;;;28.30;17.92;;;1.90;99.90;;;;;;5051637;28;20025;-67
2023/12/02 01:52:17;;;;;;;24.42;16.52;;;1.90;99.90;;;;;;5052380;28;20025;-67
2023/12/02 01:54:43;;;;;;;24.67;16.67;;;1.90;99.90;;;;;;5051920;28;20031;-67
2023/12/02 01:57:10;;;;;;;26.80;17.27;;;2.00;99.90;;;;;;5050913;28;20037;-67
2023/12/02 01:59:43;;;;;;;28.52;16.98;;;2.00;99.90;;;;;;5052314;28;20490;-67
2023/12/02 02:02:09;;;;;;;25.88;17.02;;;2.00;99.90;;;;;;5056600;28;20339;-67
2023/12/02 02:04:34;;;;;;;26.48;16.80;;;1.90;99.90;;;;;;5056250;28;20028;-67
2023/12/02 02:07:01;;;;;;;26.77;17.50;;;2.00;99.90;;;;;;5055471;28;20029;-67
2023/12/02 02:09:32;;;;;;;25.13;17.00;;;2.00;99.90;;;;;;5055977;28;20466;-67
2023/12/02 02:11:57;;;;;;;27.30;17.63;;;2.00;99.90;;;;;;5055476;28;20033;-67
2023/12/02 02:14:23;;;;;;;27.15;16.42;;;2.00;99.90;;;;;;5056060;28;20040;-66
2023/12/02 02:16:48;;;;;;;27.52;16.60;;;2.00;99.90;;;;;;5055222;28;20033;-65
2023/12/02 02:19:17;;;;;;;26.50;17.80;;;2.00;99.90;;;;;;5055920;28;20115;-65
2023/12/02 02:21:43;;;;;;;27.25;17.20;;;2.00;99.90;;;;;;5055532;28;20025;-67
2023/12/02 02:24:08;;;;;;;26.42;17.50;;;2.00;99.90;;;;;;5055901;28;20036;-65
2023/12/02 02:26:34;;;;;;;23.42;16.35;;;2.00;99.90;;;;;;5055847;28;20378;-66
2023/12/02 02:28:59;;;;;;;29.67;17.85;;;2.00;99.90;;;;;;5055343;28;20227;-66
2023/12/02 02:31:25;;;;;;;30.95;19.10;;;2.00;99.90;;;;;;5055996;28;20062;-67
2023/12/02 02:33:51;;;;;;;29.00;18.63;;;2.00;99.90;;;;;;5055206;28;20151;-65
2023/12/02 02:36:16;;;;;;;26.95;18.42;;;2.00;99.90;;;;;;5055474;28;20032;-67
2023/12/02 02:38:42;;;;;;;30.13;20.30;;;2.00;99.90;;;;;;5055367;28;20025;-67
2023/12/02 02:41:07;;;;;;;31.20;21.38;;;2.00;99.90;;;;;;5055528;28;20524;-66
2023/12/02 02:43:33;;;;;;;34.22;21.52;;;2.00;99.90;;;;;;5054836;28;20021;-66
2023/12/02 02:45:58;;;;;;;34.47;23.08;;;2.00;99.90;;;;;;5055336;28;20466;-66
2023/12/02 02:48:24;;;;;;;34.95;22.85;;;2.00;99.90;;;;;;5055618;28;20103;-66
2023/12/02 02:50:50;;;;;;;33.10;23.20;;;2.00;99.90;;;;;;5054916;28;20083;-66
2023/12/02 02:53:15;;;;;;;37.38;23.08;;;2.00;99.90;;;;;;5054973;28;20025;-66
2023/12/02 02:55:41;;;;;;;33.00;22.80;;;2.00;99.90;;;;;;5055202;28;20029;-66
2023/12/02 02:58:06;;;;;;;36.80;24.05;;;2.00;99.90;;;;;;5054672;28;20039;-66
2023/12/02 03:00:33;;;;;;;37.03;24.05;;;1.90;99.90;;;;;;5055276;28;20482;-66
2023/12/02 03:02:58;;;;;;;36.80;24.27;;;1.90;99.90;;;;;;5054693;28;20063;-66
2023/12/02 03:05:24;;;;;;;40.70;25.60;;;2.00;99.90;;;;;;5055002;28;20397;-67
2023/12/02 03:07:49;;;;;;;37.08;25.20;;;1.90;99.90;;;;;;5054271;28;20029;-67
2023/12/02 03:10:16;;;;;;;36.88;24.70;;;1.90;99.90;;;;;;5055014;28;20035;-67
2023/12/02 03:12:42;;;;;;;36.95;25.10;;;1.90;99.90;;;;;;5053817;28;20033;-67
2023/12/02 03:15:08;;;;;;;37.08;25.27;;;1.90;99.90;;;;;;5054423;28;20032;-67
2023/12/02 03:17:33;;;;;;;37.88;25.80;;;1.90;99.90;;;;;;5054717;28;20474;-67
2023/12/02 03:19:59;;;;;;;37.25;24.60;;;1.90;99.90;;;;;;5054037;28;20028;-66
2023/12/02 03:22:24;;;;;;;41.13;26.25;;;1.90;99.90;;;;;;5054820;28;20061;-66
2023/12/02 03:24:50;;;;;;;40.20;25.60;;;1.90;99.90;;;;;;5052885;28;20029;-67
2023/12/02 03:27:16;;;;;;;41.15;26.30;;;1.90;99.90;;;;;;5054617;28;20033;-67
2023/12/02 03:29:41;;;;;;;39.95;26.02;;;1.90;99.90;;;;;;5054573;28;20033;-67
2023/12/02 03:32:07;;;;;;;36.50;24.35;;;1.90;99.90;;;;;;5054163;28;20446;-67
2023/12/02 03:34:33;;;;;;;37.47;24.17;;;1.90;99.90;;;;;;5054790;28;20025;-66
2023/12/02 03:36:59;;;;;;;39.47;25.02;;;1.80;99.90;;;;;;5053849;28;20133;-65
2023/12/02 03:39:24;;;;;;;37.70;24.15;;;1.80;99.90;;;;;;5054387;28;20104;-65
2023/12/02 03:41:50;;;;;;;38.53;24.60;;;1.80;99.90;;;;;;5054216;28;20347;-65
2023/12/02 03:44:15;;;;;;;39.35;25.33;;;1.80;99.90;;;;;;5054384;28;20028;-66
2023/12/02 03:46:43;;;;;;;41.35;24.95;;;1.80;99.90;;;;;;5054263;28;20029;-66
2023/12/02 03:49:08;;;;;;;39.97;24.80;;;1.90;99.90;;;;;;5053822;28;20029;-66
2023/12/02 03:51:34;;;;;;;36.88;24.52;;;1.80;99.90;;;;;;5054235;28;20411;-66
2023/12/02 03:53:59;;;;;;;33.75;22.88;;;1.80;99.90;;;;;;5053535;28;20032;-67
2023/12/02 03:56:25;;;;;;;37.40;24.88;;;1.80;99.90;;;;;;5053732;28;20107;-67
2023/12/02 03:58:51;;;;;;;33.58;23.38;;;1.80;99.90;;;;;;5053349;28;21284;-67
2023/12/02 04:01:17;;;;;;;34.78;22.73;;;1.80;99.90;;;;;;5054057;28;20112;-67
2023/12/02 04:03:44;;;;;;;36.65;23.67;;;1.80;99.90;;;;;;5053989;28;20170;-67
2023/12/02 04:06:09;;;;;;;36.00;24.05;;;1.80;99.90;;;;;;5053457;28;20032;-67
2023/12/02 04:08:35;;;;;;;35.75;24.08;;;1.70;99.90;;;;;;5052559;28;20025;-67
2023/12/02 04:11:01;;;;;;;39.78;23.75;;;1.70;99.90;;;;;;5053184;28;20110;-66
2023/12/02 04:13:26;;;;;;;34.28;23.23;;;1.70;99.90;;;;;;5053874;28;20027;-66
2023/12/02 04:15:52;;;;;;;35.42;23.63;;;1.70;99.90;;;;;;5053330;28;20102;-66
2023/12/02 04:18:17;;;;;;;35.90;22.88;;;1.70;99.90;;;;;;5052354;28;20214;-65
2023/12/02 04:20:43;;;;;;;34.25;22.63;;;1.70;99.90;;;;;;5053579;28;20051;-65
2023/12/02 04:23:09;;;;;;;32.95;21.30;;;1.70;99.90;;;;;;5052549;28;20090;-66
2023/12/02 04:25:34;;;;;;;33.13;22.65;;;1.60;99.90;;;;;;5053867;28;20492;-66
2023/12/02 04:28:00;;;;;;;34.20;22.48;;;1.60;99.90;;;;;;5053033;28;20086;-66
2023/12/02 04:30:27;;;;;;;34.10;22.52;;;1.60;99.90;;;;;;5053482;28;20119;-66
2023/12/02 04:32:52;;;;;;;32.20;21.65;;;1.60;99.90;;;;;;5052860;28;20025;-67
2023/12/02 04:35:18;;;;;;;34.17;22.00;;;1.60;99.90;;;;;;5053642;28;20067;-66
2023/12/02 04:37:43;;;;;;;34.20;22.23;;;1.60;99.90;;;;;;5052847;28;20052;-67
2023/12/02 04:40:11;;;;;;;32.55;21.52;;;1.50;99.90;;;;;;5052845;28;20457;-67
2023/12/02 04:42:40;;;;;;;31.80;21.70;;;1.60;99.90;;;;;;5053051;28;20151;-65
2023/12/02 04:45:08;;;;;;;34.42;21.33;;;1.50;99.90;;;;;;5052764;28;20031;-67
2023/12/02 04:47:36;;;;;;;33.92;22.42;;;1.60;99.90;;;;;;5053251;28;20110;-66
2023/12/02 04:50:05;;;;;;;30.52;20.17;;;1.50;99.90;;;;;;5052086;28;20501;-65
2023/12/02 04:52:31;;;;;;;32.35;21.85;;;1.50;99.90;;;;;;5052984;28;20032;-65
2023/12/02 04:54:57;;;;;;;31.45;20.52;;;1.50;99.90;;;;;;5052689;28;20028;-66
2023/12/02 04:57:23;;;;;;;33.25;21.30;;;1.50;99.90;;;;;;5052844;28;20037;-66
2023/12/02 04:59:49;;;;;;;31.75;21.13;;;1.50;99.90;;;;;;5051447;28;20053;-66
2023/12/02 05:02:18;;;;;;;30.88;20.05;;;1.50;99.90;;;;;;5052530;28;20374;-66
2023/12/02 05:04:44;;;;;;;28.05;19.75;;;1.50;99.90;;;;;;5052779;28;20374;-66
2023/12/02 05:07:09;;;;;;;28.17;19.88;;;1.50;99.90;;;;;;5052110;28;20040;-66
2023/12/02 05:09:36;;;;;;;31.17;20.38;;;1.50;99.90;;;;;;5052638;28;20032;-66
2023/12/02 05:12:02;;;;;;;31.23;20.65;;;1.50;99.90;;;;;;5052292;28;20065;-66
2023/12/02 05:14:28;;;;;;;30.38;19.80;;;1.50;99.90;;;;;;5052296;28;20048;-66
2023/12/02 05:16:53;;;;;;;30.35;19.88;;;1.50;99.90;;;;;;5051412;28;20029;-67
2023/12/02 05:19:19;;;;;;;30.27;19.45;;;1.50;99.90;;;;;;5052894;28;20466;-66
2023/12/02 05:21:44;;;;;;;30.00;19.73;;;1.50;99.90;;;;;;5052658;28;20029;-67
2023/12/02 05:24:10;;;;;;;31.15;19.63;;;1.50;99.90;;;;;;5052243;28;20473;-67
2023/12/02 05:26:36;;;;;;;28.10;19.35;;;1.50;99.90;;;;;;5052557;28;20059;-66
2023/12/02 05:29:03;;;;;;;27.45;17.85;;;1.50;99.90;;;;;;5052416;28;20434;-68
2023/12/02 05:31:28;;;;;;;28.17;18.48;;;1.50;99.90;;;;;;5052190;28;20039;-66
2023/12/02 05:33:55;;;;;;;27.35;18.30;;;1.50;99.90;;;;;;5051723;28;20052;-73
2023/12/02 05:36:20;;;;;;;28.83;19.13;;;1.50;99.90;;;;;;5051819;28;20394;-67
2023/12/02 05:38:46;;;;;;;26.15;18.02;;;1.50;99.90;;;;;;5052159;28;20037;-66
2023/12/02 05:41:12;;;;;;;29.27;20.20;;;1.50;99.90;;;;;;5051737;28;20154;-66
2023/12/02 05:43:38;;;;;;;26.85;19.23;;;1.50;99.90;;;;;;5052392;28;20029;-66
2023/12/02 05:46:04;;;;;;;30.75;19.13;;;1.50;99.90;;;;;;5051801;28;20037;-66
2023/12/02 05:48:30;;;;;;;26.75;19.08;;;1.40;99.90;;;;;;5052305;28;20032;-66
2023/12/02 05:50:56;;;;;;;33.70;20.80;;;1.50;99.90;;;;;;5052104;28;20465;-67
2023/12/02 05:53:21;;;;;;;33.05;20.33;;;1.40;99.90;;;;;;5052366;28;20218;-66
2023/12/02 05:55:47;;;;;;;29.67;20.17;;;1.50;99.90;;;;;;5051210;28;20029;-66
2023/12/02 05:58:12;;;;;;;32.17;21.65;;;1.40;99.90;;;;;;5051758;28;20040;-66
2023/12/02 06:00:38;;;;;;;30.65;20.60;;;1.40;99.90;;;;;;5052058;28;20049;-66
2023/12/02 06:03:04;;;;;;;32.53;20.98;;;1.40;99.90;;;;;;5051696;28;20083;-66
2023/12/02 06:05:29;;;;;;;32.90;21.70;;;1.40;99.90;;;;;;5052279;28;20025;-66
2023/12/02 06:07:55;;;;;;;35.35;21.92;;;1.40;99.90;;;;;;5052309;28;20090;-67
2023/12/02 06:10:21;;;;;;;36.63;23.30;;;1.40;99.90;;;;;;5051840;28;20551;-66
2023/12/02 06:12:47;;;;;;;38.95;23.63;;;1.40;99.90;;;;;;5052255;28;20111;-66
2023/12/02 06:15:13;;;;;;;34.20;22.98;;;1.30;99.90;;;;;;5051868;28;20430;-66
2023/12/02 06:17:39;;;;;;;33.55;22.50;;;1.40;99.90;;;;;;5052078;28;20474;-67
2023/12/02 06:20:06;;;;;;;35.78;23.27;;;1.30;99.90;;;;;;5051796;28;20100;-67
2023/12/02 06:22:33;;;;;;;36.35;22.98;;;1.30;99.90;;;;;;5052140;28;20029;-67
2023/12/02 06:24:58;;;;;;;34.35;22.92;;;1.30;99.90;;;;;;5051675;28;20029;-68
2023/12/02 06:27:24;;;;;;;37.92;25.83;;;1.30;99.90;;;;;;5052401;28;20040;-66
2023/12/02 06:29:50;;;;;;;36.10;23.20;;;1.30;99.90;;;;;;5052043;28;20545;-67
2023/12/02 06:32:15;;;;;;;39.38;24.83;;;1.30;99.90;;;;;;5051468;28;20409;-67
2023/12/02 06:34:41;;;;;;;37.83;24.05;;;1.30;99.90;;;;;;5051966;28;20078;-66
2023/12/02 06:37:06;;;;;;;37.83;24.90;;;1.30;99.90;;;;;;5051479;28;20037;-67
2023/12/02 06:39:32;;;;;;;37.15;23.88;;;1.30;99.90;;;;;;5052298;28;20423;-66
2023/12/02 06:41:59;;;;;;;35.33;23.55;;;1.30;99.90;;;;;;5051924;28;20572;-66
2023/12/02 06:44:25;;;;;;;36.92;24.00;;;1.30;99.90;;;;;;5051818;28;20083;-66
2023/12/02 06:46:51;;;;;;;36.60;24.80;;;1.30;99.90;;;;;;5053722;28;20048;-66
2023/12/02 06:49:17;;;;;;;37.55;24.08;;;1.30;99.90;;;;;;5054711;28;20025;-66
2023/12/02 06:51:42;;;;;;;42.53;26.75;;;1.30;99.90;;;;;;5055292;28;20037;-68
2023/12/02 06:54:09;;;;;;;36.38;24.33;;;1.30;99.90;;;;;;5055007;28;20033;-67
2023/12/02 06:56:35;;;;;;;39.58;27.10;;;1.30;99.90;;;;;;5055165;28;20025;-67
2023/12/02 06:59:00;;;;;;;41.63;26.55;;;1.30;99.90;;;;;;5054657;28;20390;-71
2023/12/02 07:01:31;;;;;;;41.00;27.23;;;1.30;99.90;;;;;;5054974;28;20108;-66
2023/12/02 07:03:58;;;;;;;39.40;26.15;;;1.30;99.90;;;;;;5055263;28;20025;-66
2023/12/02 07:06:24;;;;;;;40.22;25.85;;;1.40;99.90;;;;;;5054646;28;20059;-66
2023/12/02 07:08:51;;;;;;;37.15;25.63;;;1.30;99.90;;;;;;5055124;28;20025;-67
2023/12/02 07:11:17;;;;;;;37.40;24.98;;;1.30;99.90;;;;;;5054557;28;20056;-66
2023/12/02 07:13:43;;;;;;;40.00;26.33;;;1.30;99.90;;;;;;5054422;28;20021;-66
2023/12/02 07:16:10;;;;;;;35.55;24.40;;;1.30;99.90;;;;;;5054465;28;20025;-67
2023/12/02 07:18:35;;;;;;;33.95;23.75;;;1.30;99.90;;;;;;5054838;28;20078;-66
2023/12/02 07:21:01;;;;;;;36.80;23.42;;;1.40;99.90;;;;;;5054619;28;20024;-66
2023/12/02 07:23:28;;;;;;;37.08;24.27;;;1.40;99.90;;;;;;5054598;28;20040;-66
2023/12/02 07:26:00;;;;;;;35.53;24.63;;;1.40;99.90;;;;;;5054613;28;20061;-66
2023/12/02 07:28:26;;;;;;;36.35;24.92;;;1.40;99.90;;;;;;5054257;28;20367;-67
2023/12/02 07:30:52;;;;;;;35.88;23.90;;;1.40;99.90;;;;;;5054614;28;20128;-66
2023/12/02 07:33:21;;;;;;;35.47;23.17;;;1.40;99.90;;;;;;5054182;28;20021;-66
2023/12/02 07:35:46;;;;;;;33.20;23.70;;;1.40;99.90;;;;;;5054261;28;20029;-67
2023/12/02 07:38:12;;;;;;;36.83;23.23;;;1.40;99.90;;;;;;5054171;28;20481;-66
2023/12/02 07:40:37;;;;;;;35.00;22.40;;;1.40;99.90;;;;;;5053963;28;20071;-66
2023/12/02 07:43:03;;;;;;;43.65;23.55;;;1.50;99.90;;;;;;5053581;28;20025;-71
2023/12/02 07:45:29;;;;;;;33.42;23.33;;;1.40;99.90;;;;;;5054578;28;20053;-67
2023/12/02 07:47:55;;;;;;;36.55;23.88;;;1.40;99.90;;;;;;5054274;28;20420;-67
2023/12/02 07:50:21;;;;;;;34.47;22.50;;;1.50;99.90;;;;;;5053683;28;20029;-67
2023/12/02 07:52:47;;;;;;;31.73;22.40;;;1.50;99.90;;;;;;5054296;28;20021;-67
2023/12/02 07:55:13;;;;;;;35.20;23.38;;;1.50;99.90;;;;;;5053502;28;20075;-67
2023/12/02 07:57:39;;;;;;;34.00;23.38;;;1.50;99.90;;;;;;5053454;28;20033;-67
2023/12/02 08:00:07;;;;;;;32.88;23.02;;;1.50;99.90;;;;;;5053657;28;20490;-70
2023/12/02 08:02:33;;;;;;;36.85;22.63;;;1.50;99.90;;;;;;5053888;28;20052;-66
2023/12/02 08:04:59;;;;;;;34.28;22.75;;;1.60;99.90;;;;;;5054212;28;20114;-66
2023/12/02 08:07:24;;;;;;;34.42;22.52;;;1.60;99.90;;;;;;5053054;28;20343;-66
2023/12/02 08:09:50;;;;;;;32.55;20.48;;;1.60;99.90;;;;;;5053480;28;20025;-66
2023/12/02 08:12:15;;;;;;;30.98;21.00;;;1.60;99.90;;;;;;5053199;28;20028;-67
2023/12/02 08:14:41;;;;;;;30.45;21.52;;;1.60;99.90;;;;;;5053684;28;20120;-67
2023/12/02 08:17:07;;;;;;;32.13;20.92;;;1.60;99.90;;;;;;5053297;28;20043;-68
2023/12/02 08:19:33;;;;;;;33.05;20.90;;;1.60;99.90;;;;;;5053751;28;20029;-66
2023/12/02 08:21:59;;;;;;;34.92;21.48;;;1.60;99.90;;;;;;5053277;28;20048;-67
2023/12/02 08:24:24;;;;;;;30.48;21.75;;;1.50;99.90;;;;;;5053223;28;20029;-66
2023/12/02 08:26:50;;;;;;;29.98;21.30;;;1.50;99.90;;;;;;5053311;28;20041;-66
2023/12/02 08:29:16;;;;;;;33.90;21.98;;;1.50;99.90;;;;;;5052938;28;20033;-66
2023/12/02 08:31:42;;;;;;;33.30;20.17;;;1.50;99.90;;;;;;5053267;28;20029;-66
2023/12/02 08:34:07;;;;;;;30.10;19.60;;;1.60;99.90;;;;;;5052870;28;20466;-70
2023/12/02 08:36:33;;;;;;;30.05;19.85;;;1.60;99.90;;;;;;5053415;28;20021;-66
2023/12/02 08:38:58;;;;;;;30.58;20.80;;;1.60;99.90;;;;;;5052879;28;20083;-67
2023/12/02 08:41:24;;;;;;;31.92;20.70;;;1.50;99.90;;;;;;5052690;28;20032;-67
2023/12/02 08:43:50;;;;;;;29.35;20.55;;;1.50;99.90;;;;;;5053000;28;20021;-67
2023/12/02 08:46:19;;;;;;;29.63;19.35;;;1.60;99.90;;;;;;5052470;28;20123;-66
2023/12/02 08:48:45;;;;;;;27.25;19.35;;;1.60;99.90;;;;;;5052901;28;20025;-66
2023/12/02 08:51:11;;;;;;;27.98;18.63;;;1.60;99.90;;;;;;5051796;28;20488;-67
2023/12/02 08:53:37;;;;;;;27.08;18.15;;;1.60;99.90;;;;;;5053343;28;20065;-67
2023/12/02 08:56:02;;;;;;;28.88;18.48;;;1.60;99.90;;;;;;5052934;28;20070;-67
2023/12/02 08:58:28;;;;;;;27.73;17.95;;;1.60;99.90;;;;;;5052338;28;20824;-66
2023/12/02 09:00:54;;;;;;;28.67;18.13;;;1.60;99.90;;;;;;5053105;28;20498;-66
2023/12/02 09:03:19;;;;;;;28.10;17.33;;;1.60;99.90;;;;;;5052493;28;20083;-66
2023/12/02 09:05:45;;;;;;;25.98;16.92;;;1.60;99.90;;;;;;5052801;28;20032;-67
2023/12/02 09:08:11;;;;;;;27.77;16.45;;;1.60;99.90;;;;;;5052410;28;20029;-65
2023/12/02 09:10:37;;;;;;;23.95;16.67;;;1.60;99.90;;;;;;5051547;28;20036;-66
2023/12/02 09:13:32;;;;;;;27.08;17.90;;;1.60;99.90;;;;;;5053015;28;20048;-67
2023/12/02 09:16:00;;;;;;;26.88;17.58;;;1.60;99.90;;;;;;5052074;28;20559;-66
2023/12/02 09:18:36;;;;;;;25.17;17.23;;;1.60;99.90;;;;;;5052207;28;20044;-68
2023/12/02 09:21:03;;;;;;;27.10;18.73;;;1.60;99.90;;;;;;5052339;28;20488;-67
2023/12/02 09:23:29;;;;;;;26.77;17.17;;;1.60;99.90;;;;;;5052235;28;20029;-67
2023/12/02 09:26:01;;;;;;;26.05;17.75;;;1.60;99.90;;;;;;5052509;28;20049;-67
2023/12/02 09:28:29;;;;;;;25.23;17.20;;;1.70;99.90;;;;;;5052082;28;20458;-67
2023/12/02 09:31:04;;;;;;;25.52;16.42;;;1.70;99.90;;;;;;5052533;28;20036;-67
2023/12/02 09:33:31;;;;;;;24.98;16.92;;;1.70;99.90;;;;;;5052261;28;20057;-66
2023/12/02 09:36:04;;;;;;;25.55;16.40;;;1.70;99.90;;;;;;5052492;28;20033;-67
2023/12/02 09:38:31;;;;;;;24.40;15.68;;;1.70;99.90;;;;;;5052019;28;20029;-66
2023/12/02 09:41:19;;;;;;;23.70;15.85;;;1.70;99.90;;;;;;5051987;28;20466;-66
2023/12/02 09:44:21;;;;;;;29.25;16.80;;;1.60;99.90;;;;;;5052155;28;20466;-66
2023/12/02 09:47:19;;;;;;;25.10;16.10;;;1.70;99.90;;;;;;5052319;28;20033;-66
2023/12/02 09:49:50;;;;;;;25.80;16.20;;;1.60;99.90;;;;;;5051787;28;20048;-66
2023/12/02 09:52:27;;;;;;;23.35;15.98;;;1.60;99.90;;;;;;5050580;28;20029;-66
2023/12/02 09:55:09;;;;;;;25.27;16.42;;;1.60;99.90;;;;;;5052016;28;20378;-66
2023/12/02 09:57:53;;;;;;;26.10;16.92;;;1.50;99.90;;;;;;5051876;28;20032;-67
2023/12/02 10:00:50;;;;;;;29.55;16.90;;;1.50;99.90;;;;;;5052007;28;20053;-66
2023/12/02 10:03:19;;;;;;;25.63;17.35;;;1.50;99.90;;;;;;5051766;28;20071;-67
2023/12/02 10:06:03;;;;;;;29.52;18.38;;;1.50;99.90;;;;;;5052373;28;20091;-67
2023/12/02 10:09:01;;;;;;;25.20;17.10;;;1.50;99.90;;;;;;5051830;28;20029;-66
2023/12/02 10:11:48;;;;;;;28.98;18.60;;;1.40;99.90;;;;;;5049346;28;20389;-67
2023/12/02 10:14:17;;;;;;;26.98;17.33;;;1.40;99.90;;;;;;5051782;28;20404;-73
2023/12/02 10:16:45;;;;;;;27.33;17.80;;;1.40;99.90;;;;;;5051745;28;20033;-66
2023/12/02 10:19:15;;;;;;;23.95;15.82;;;1.40;99.90;;;;;;5051934;28;20033;-66
2023/12/02 10:21:45;;;;;;;26.95;16.23;;;1.40;99.90;;;;;;5054154;28;20031;-66
2023/12/02 10:24:13;;;;;;;29.50;17.30;;;1.40;99.90;;;;;;5055663;28;20111;-67
2023/12/02 10:26:58;;;;;;;24.08;16.35;;;1.40;99.90;;;;;;5055101;28;20025;-66
2023/12/02 10:29:43;;;;;;;28.20;16.58;;;1.40;99.90;;;;;;5055418;28;20351;-67
2023/12/02 10:32:27;;;;;;;25.08;16.35;;;1.40;99.90;;;;;;5055750;28;20111;-67
2023/12/02 10:35:17;;;;;;;25.98;16.77;;;1.40;99.90;;;;;;5054218;28;20457;-66
2023/12/02 10:37:46;;;;;;;28.25;17.70;;;1.40;99.90;;;;;;5055391;28;20040;-67
2023/12/02 10:40:14;;;;;;;26.80;16.80;;;1.40;99.90;;;;;;5055482;28;20036;-67
2023/12/02 10:43:13;;;;;;;28.02;17.08;;;1.40;99.90;;;;;;5054767;28;20436;-67
2023/12/02 10:45:41;;;;;;;25.75;17.42;;;1.30;99.90;;;;;;5055254;28;20048;-66
2023/12/02 10:48:10;;;;;;;27.13;17.80;;;1.30;99.90;;;;;;5054826;28;20029;-67
2023/12/02 10:50:39;;;;;;;25.77;16.75;;;1.30;99.90;;;;;;5054805;28;20083;-67
2023/12/02 10:53:04;;;;;;;27.95;18.00;;;1.30;99.90;;;;;;5054761;28;20032;-67
2023/12/02 10:55:32;;;;;;;26.38;17.27;;;1.30;99.90;;;;;;5054865;28;20022;-67
2023/12/02 10:58:01;;;;;;;28.23;17.92;;;1.30;99.90;;;;;;5054742;28;20033;-67
2023/12/02 11:00:30;;;;;;;27.70;17.38;;;1.30;99.90;;;;;;5054755;28;20106;-67
2023/12/02 11:03:43;;;;;;;27.15;18.08;;;1.30;99.90;;;;;;5054783;28;20458;-67
2023/12/02 11:06:33;;;;;;;23.45;15.65;;;1.30;99.90;;;;;;5050061;28;20121;-67
2023/12/02 11:09:06;;;;;;;23.10;14.85;;;1.30;99.90;;;;;;5055135;28;20037;-67
2023/12/02 11:11:47;;;;;;;24.00;15.27;;;1.30;99.90;;;;;;5054532;28;20056;-67
2023/12/02 11:14:18;;;;;;;22.55;15.40;;;1.30;99.90;;;;;;5054753;28;20082;-67
2023/12/02 11:17:15;;;;;;;21.30;14.25;;;1.30;99.90;;;;;;5054826;28;20029;-67
2023/12/02 11:20:05;;;;;;;23.00;14.65;;;1.30;99.90;;;;;;5051352;28;20037;-67
2023/12/02 11:22:32;;;;;;;22.83;14.32;;;1.30;99.90;;;;;;5054299;28;20029;-66
2023/12/02 11:25:16;;;;;;;23.10;14.32;;;1.40;99.90;;;;;;5054650;28;20025;-66
2023/12/02 11:27:59;;;;;;;20.90;13.82;;;1.30;99.90;;;;;;5054498;28;20523;-67
2023/12/02 11:30:47;;;;;;;20.38;13.07;;;1.30;99.90;;;;;;5054290;28;20025;-67
2023/12/02 11:33:26;;;;;;;18.85;12.93;;;1.30;99.90;;;;;;5049904;28;20485;-66
2023/12/02 11:36:13;;;;;;;23.55;13.07;;;1.30;99.90;;;;;;5054527;28;20222;-67
2023/12/02 11:39:05;;;;;;;18.88;12.77;;;1.30;99.90;;;;;;5054031;28;20037;-67
2023/12/02 11:41:49;;;;;;;21.02;12.43;;;1.30;99.90;;;;;;5053987;28;20453;-67
2023/12/02 11:44:23;;;;;;;20.33;12.10;;;1.30;99.90;;;;;;5054476;28;20040;-66
2023/12/02 11:47:06;;;;;;;18.30;12.20;;;1.30;99.90;;;;;;5052879;28;20036;-67
2023/12/02 11:50:13;;;;;;;17.90;11.82;;;1.30;99.90;;;;;;5053571;28;20031;-67
2023/12/02 11:53:10;;;;;;;16.92;11.18;;;1.20;99.90;;;;;;5042791;28;20048;-67
2023/12/02 11:55:43;;;;;;;16.90;10.80;;;1.20;99.90;;;;;;5053651;28;20481;-67
2023/12/02 11:58:26;;;;;;;15.75;10.82;;;1.20;99.90;;;;;;5054063;28;20377;-66
2023/12/02 12:01:31;;;;;;;15.18;9.88;;;1.20;99.90;;;;;;5052489;28;20077;-66
2023/12/02 12:04:33;;;;;;;16.10;10.20;;;1.20;99.90;;;;;;5054106;28;20454;-66
2023/12/02 12:07:18;;;;;;;14.05;9.30;;;1.20;99.90;;;;;;5053494;28;20549;-66
2023/12/02 12:10:07;;;;;;;13.13;9.27;;;1.10;99.90;;;;;;5053451;28;20103;-68
2023/12/02 12:12:39;;;;;;;12.52;9.02;;;1.10;99.90;;;;;;5053325;28;20036;-66
2023/12/02 12:15:05;;;;;;;13.95;9.00;;;1.10;99.90;;;;;;5053798;28;20064;-66
2023/12/02 12:17:31;;;;;;;12.02;9.07;;;1.10;99.90;;;;;;5051869;28;20132;-67
2023/12/02 12:19:59;;;;;;;15.15;9.93;;;1.10;99.90;;;;;;5053991;28;20484;-67
2023/12/02 12:22:28;;;;;;;12.63;8.88;;;1.00;99.90;;;;;;5052942;28;20029;-68
2023/12/02 12:24:54;;;;;;;13.73;9.38;;;1.00;99.90;;;;;;5053561;28;20488;-68
2023/12/02 12:27:20;;;;;;;12.18;9.07;;;1.00;99.90;;;;;;5053099;28;20484;-66
2023/12/02 12:29:53;;;;;;;15.65;9.05;;;1.00;99.90;;;;;;5053078;28;20106;-68
2023/12/02 12:32:19;;;;;;;14.73;9.57;;;1.00;99.90;;;;;;5053470;28;20033;-67
2023/12/02 12:34:45;;;;;;;14.02;9.30;;;1.00;99.90;;;;;;5053056;28;20474;-67
2023/12/02 12:37:19;;;;;;;13.05;9.25;;;1.00;99.90;;;;;;5052964;28;20476;-67
2023/12/02 12:39:46;;;;;;;13.05;8.43;;;1.00;99.90;;;;;;5052884;28;20599;-66
2023/12/02 12:42:12;;;;;;;12.93;8.60;;;1.00;99.90;;;;;;5053186;28;20043;-66
2023/12/02 12:44:41;;;;;;;11.57;7.93;;;1.00;99.90;;;;;;5051704;28;20454;-66
2023/12/02 12:47:09;;;;;;;11.35;7.45;;;1.00;99.90;;;;;;5053222;28;20087;-67